sensor_id;sensor_type;location;lat;lon;timestamp;P1;durP1;ratioP1;P2;durP2;ratioP2
3597;SDS011;1813;52.016;8.714;2023-10-09T00:02:26;8.97;;;5.47;;
3597;SDS011;1813;52.016;8.714;2023-10-09T00:05:00;10.70;;;5.47;;
3597;SDS011;1813;52.016;8.714;2023-10-09T00:07:42;10.37;;;5.43;;
3597;SDS011;1813;52.016;8.714;2023-10-09T00:10:18;8.90;;;5.10;;
3597;SDS011;1813;52.016;8.714;2023-10-09T00:12:51;10.10;;;5.17;;
3597;SDS011;1813;52.016;8.714;2023-10-09T00:15:28;7.10;;;5.30;;
3597;SDS011;1813;52.016;8.714;2023-10-09T00:18:03;8.10;;;5.00;;
3597;SDS011;1813;52.016;8.714;2023-10-09T00:20:42;8.37;;;4.90;;
3597;SDS011;1813;52.016;8.714;2023-10-09T00:23:26;7.87;;;4.53;;
3597;SDS011;1813;52.016;8.714;2023-10-09T00:26:02;8.00;;;5.00;;
3597;SDS011;1813;52.016;8.714;2023-10-09T00:28:50;9.50;;;4.43;;
3597;SDS011;1813;52.016;8.714;2023-10-09T00:31:27;6.30;;;4.97;;
3597;SDS011;1813;52.016;8.714;2023-10-09T00:34:04;8.60;;;4.80;;
3597;SDS011;1813;52.016;8.714;2023-10-09T00:36:38;8.00;;;4.77;;
3597;SDS011;1813;52.016;8.714;2023-10-09T00:39:21;10.10;;;4.93;;
3597;SDS011;1813;52.016;8.714;2023-10-09T00:42:16;10.30;;;5.03;;
3597;SDS011;1813;52.016;8.714;2023-10-09T00:45:00;8.17;;;5.03;;
3597;SDS011;1813;52.016;8.714;2023-10-09T00:47:37;7.67;;;5.00;;
3597;SDS011;1813;52.016;8.714;2023-10-09T00:50:14;8.87;;;5.10;;
3597;SDS011;1813;52.016;8.714;2023-10-09T00:52:52;7.63;;;4.67;;
3597;SDS011;1813;52.016;8.714;2023-10-09T00:55:32;9.77;;;5.20;;
3597;SDS011;1813;52.016;8.714;2023-10-09T00:58:15;9.07;;;5.37;;
3597;SDS011;1813;52.016;8.714;2023-10-09T01:00:54;10.20;;;5.10;;
3597;SDS011;1813;52.016;8.714;2023-10-09T01:03:32;11.77;;;5.50;;
3597;SDS011;1813;52.016;8.714;2023-10-09T01:06:10;21.77;;;7.47;;
3597;SDS011;1813;52.016;8.714;2023-10-09T01:08:51;12.13;;;7.40;;
3597;SDS011;1813;52.016;8.714;2023-10-09T01:11:39;14.13;;;6.50;;
3597;SDS011;1813;52.016;8.714;2023-10-09T01:14:33;13.70;;;8.27;;
3597;SDS011;1813;52.016;8.714;2023-10-09T01:17:11;16.53;;;9.07;;
3597;SDS011;1813;52.016;8.714;2023-10-09T01:20:02;23.73;;;10.40;;
3597;SDS011;1813;52.016;8.714;2023-10-09T01:22:45;25.97;;;11.87;;
3597;SDS011;1813;52.016;8.714;2023-10-09T01:25:23;20.13;;;11.47;;
3597;SDS011;1813;52.016;8.714;2023-10-09T01:28:02;20.23;;;9.37;;
3597;SDS011;1813;52.016;8.714;2023-10-09T01:30:36;15.13;;;7.90;;
3597;SDS011;1813;52.016;8.714;2023-10-09T01:33:11;20.13;;;8.57;;
3597;SDS011;1813;52.016;8.714;2023-10-09T01:35:57;18.60;;;10.30;;
3597;SDS011;1813;52.016;8.714;2023-10-09T01:38:32;50.70;;;19.80;;
3597;SDS011;1813;52.016;8.714;2023-10-09T01:41:17;38.90;;;17.10;;
3597;SDS011;1813;52.016;8.714;2023-10-09T01:43:50;30.40;;;13.67;;
3597;SDS011;1813;52.016;8.714;2023-10-09T01:46:31;36.80;;;16.03;;
3597;SDS011;1813;52.016;8.714;2023-10-09T01:49:04;40.30;;;16.33;;
3597;SDS011;1813;52.016;8.714;2023-10-09T01:51:48;56.87;;;24.10;;
3597;SDS011;1813;52.016;8.714;2023-10-09T01:54:24;62.87;;;28.70;;
3597;SDS011;1813;52.016;8.714;2023-10-09T01:57:10;65.47;;;26.53;;
3597;SDS011;1813;52.016;8.714;2023-10-09T01:59:44;68.97;;;27.43;;
3597;SDS011;1813;52.016;8.714;2023-10-09T02:02:20;64.10;;;25.93;;
3597;SDS011;1813;52.016;8.714;2023-10-09T02:05:04;57.03;;;25.93;;
3597;SDS011;1813;52.016;8.714;2023-10-09T02:07:56;61.87;;;27.07;;
3597;SDS011;1813;52.016;8.714;2023-10-09T02:10:34;61.33;;;27.30;;
3597;SDS011;1813;52.016;8.714;2023-10-09T02:13:11;61.83;;;26.30;;
3597;SDS011;1813;52.016;8.714;2023-10-09T02:15:47;65.57;;;27.17;;
3597;SDS011;1813;52.016;8.714;2023-10-09T02:18:29;65.73;;;27.73;;
3597;SDS011;1813;52.016;8.714;2023-10-09T02:21:22;66.07;;;28.47;;
3597;SDS011;1813;52.016;8.714;2023-10-09T02:24:06;57.27;;;26.67;;
3597;SDS011;1813;52.016;8.714;2023-10-09T02:26:56;57.03;;;27.73;;
3597;SDS011;1813;52.016;8.714;2023-10-09T02:29:46;66.83;;;28.20;;
3597;SDS011;1813;52.016;8.714;2023-10-09T02:32:20;64.73;;;27.90;;
3597;SDS011;1813;52.016;8.714;2023-10-09T02:35:00;53.00;;;26.40;;
3597;SDS011;1813;52.016;8.714;2023-10-09T02:37:41;61.87;;;28.67;;
3597;SDS011;1813;52.016;8.714;2023-10-09T02:40:17;60.90;;;28.63;;
3597;SDS011;1813;52.016;8.714;2023-10-09T02:42:56;52.00;;;26.90;;
3597;SDS011;1813;52.016;8.714;2023-10-09T02:45:32;59.80;;;28.47;;
3597;SDS011;1813;52.016;8.714;2023-10-09T02:48:12;63.57;;;28.70;;
3597;SDS011;1813;52.016;8.714;2023-10-09T02:50:46;65.30;;;28.33;;
3597;SDS011;1813;52.016;8.714;2023-10-09T02:53:21;60.27;;;27.73;;
3597;SDS011;1813;52.016;8.714;2023-10-09T02:56:00;57.97;;;27.97;;
3597;SDS011;1813;52.016;8.714;2023-10-09T02:58:42;64.67;;;29.00;;
3597;SDS011;1813;52.016;8.714;2023-10-09T03:01:21;68.97;;;30.27;;
3597;SDS011;1813;52.016;8.714;2023-10-09T03:03:54;63.53;;;30.97;;
3597;SDS011;1813;52.016;8.714;2023-10-09T03:06:29;64.50;;;30.90;;
3597;SDS011;1813;52.016;8.714;2023-10-09T03:09:04;60.37;;;29.70;;
3597;SDS011;1813;52.016;8.714;2023-10-09T03:11:48;59.40;;;29.40;;
3597;SDS011;1813;52.016;8.714;2023-10-09T03:14:24;63.77;;;30.50;;
3597;SDS011;1813;52.016;8.714;2023-10-09T03:17:02;62.67;;;30.13;;
3597;SDS011;1813;52.016;8.714;2023-10-09T03:19:37;69.23;;;31.00;;
3597;SDS011;1813;52.016;8.714;2023-10-09T03:22:11;64.30;;;30.50;;
3597;SDS011;1813;52.016;8.714;2023-10-09T03:24:44;74.53;;;30.40;;
3597;SDS011;1813;52.016;8.714;2023-10-09T03:27:19;58.03;;;28.60;;
3597;SDS011;1813;52.016;8.714;2023-10-09T03:29:53;58.30;;;27.53;;
3597;SDS011;1813;52.016;8.714;2023-10-09T03:32:30;54.70;;;25.87;;
3597;SDS011;1813;52.016;8.714;2023-10-09T03:35:04;58.10;;;26.53;;
3597;SDS011;1813;52.016;8.714;2023-10-09T03:37:44;56.17;;;26.67;;
3597;SDS011;1813;52.016;8.714;2023-10-09T03:40:17;58.60;;;25.67;;
3597;SDS011;1813;52.016;8.714;2023-10-09T03:42:52;63.70;;;25.30;;
3597;SDS011;1813;52.016;8.714;2023-10-09T03:45:25;59.00;;;26.27;;
3597;SDS011;1813;52.016;8.714;2023-10-09T03:48:04;57.73;;;26.07;;
3597;SDS011;1813;52.016;8.714;2023-10-09T03:50:41;50.43;;;24.27;;
3597;SDS011;1813;52.016;8.714;2023-10-09T03:53:16;44.27;;;23.87;;
3597;SDS011;1813;52.016;8.714;2023-10-09T03:55:49;60.57;;;25.10;;
3597;SDS011;1813;52.016;8.714;2023-10-09T03:58:22;50.33;;;23.57;;
3597;SDS011;1813;52.016;8.714;2023-10-09T04:01:00;40.97;;;22.43;;
3597;SDS011;1813;52.016;8.714;2023-10-09T04:03:47;49.50;;;24.40;;
3597;SDS011;1813;52.016;8.714;2023-10-09T04:06:25;45.13;;;23.60;;
3597;SDS011;1813;52.016;8.714;2023-10-09T04:09:02;46.67;;;23.70;;
3597;SDS011;1813;52.016;8.714;2023-10-09T04:11:57;52.90;;;24.13;;
3597;SDS011;1813;52.016;8.714;2023-10-09T04:14:50;50.37;;;25.27;;
3597;SDS011;1813;52.016;8.714;2023-10-09T04:17:25;55.27;;;25.23;;
3597;SDS011;1813;52.016;8.714;2023-10-09T04:20:14;52.87;;;24.10;;
3597;SDS011;1813;52.016;8.714;2023-10-09T04:23:00;47.70;;;24.13;;
3597;SDS011;1813;52.016;8.714;2023-10-09T04:25:37;46.33;;;24.33;;
3597;SDS011;1813;52.016;8.714;2023-10-09T04:28:12;44.03;;;23.93;;
3597;SDS011;1813;52.016;8.714;2023-10-09T04:30:52;44.70;;;24.03;;
3597;SDS011;1813;52.016;8.714;2023-10-09T04:33:29;51.93;;;24.97;;
3597;SDS011;1813;52.016;8.714;2023-10-09T04:36:15;49.50;;;25.60;;
3597;SDS011;1813;52.016;8.714;2023-10-09T04:38:53;49.33;;;25.00;;
3597;SDS011;1813;52.016;8.714;2023-10-09T04:41:46;51.07;;;26.10;;
3597;SDS011;1813;52.016;8.714;2023-10-09T04:44:45;59.83;;;26.07;;
3597;SDS011;1813;52.016;8.714;2023-10-09T04:47:35;48.27;;;24.77;;
3597;SDS011;1813;52.016;8.714;2023-10-09T04:50:19;65.87;;;26.50;;
3597;SDS011;1813;52.016;8.714;2023-10-09T04:53:08;55.73;;;26.43;;
3597;SDS011;1813;52.016;8.714;2023-10-09T04:55:56;51.60;;;26.50;;
3597;SDS011;1813;52.016;8.714;2023-10-09T04:58:35;54.17;;;25.30;;
3597;SDS011;1813;52.016;8.714;2023-10-09T05:01:09;54.83;;;26.40;;
3597;SDS011;1813;52.016;8.714;2023-10-09T05:04:06;47.10;;;26.03;;
3597;SDS011;1813;52.016;8.714;2023-10-09T05:06:56;51.20;;;27.77;;
3597;SDS011;1813;52.016;8.714;2023-10-09T05:09:54;53.70;;;25.77;;
3597;SDS011;1813;52.016;8.714;2023-10-09T05:12:44;54.70;;;26.90;;
3597;SDS011;1813;52.016;8.714;2023-10-09T05:15:27;53.07;;;26.93;;
3597;SDS011;1813;52.016;8.714;2023-10-09T05:18:00;53.70;;;26.43;;
3597;SDS011;1813;52.016;8.714;2023-10-09T05:20:39;45.90;;;26.40;;
3597;SDS011;1813;52.016;8.714;2023-10-09T05:23:25;51.03;;;26.37;;
3597;SDS011;1813;52.016;8.714;2023-10-09T05:26:02;62.50;;;28.10;;
3597;SDS011;1813;52.016;8.714;2023-10-09T05:28:55;51.27;;;26.90;;
3597;SDS011;1813;52.016;8.714;2023-10-09T05:31:28;53.87;;;28.20;;
3597;SDS011;1813;52.016;8.714;2023-10-09T05:34:26;53.47;;;28.17;;
3597;SDS011;1813;52.016;8.714;2023-10-09T05:37:04;64.50;;;28.40;;
3597;SDS011;1813;52.016;8.714;2023-10-09T05:39:47;53.57;;;27.20;;
3597;SDS011;1813;52.016;8.714;2023-10-09T05:42:54;52.40;;;28.50;;
3597;SDS011;1813;52.016;8.714;2023-10-09T05:45:29;57.23;;;29.07;;
3597;SDS011;1813;52.016;8.714;2023-10-09T05:48:23;56.47;;;29.20;;
3597;SDS011;1813;52.016;8.714;2023-10-09T05:51:09;59.63;;;29.87;;
3597;SDS011;1813;52.016;8.714;2023-10-09T05:54:05;53.87;;;29.40;;
3597;SDS011;1813;52.016;8.714;2023-10-09T05:56:53;56.23;;;29.37;;
3597;SDS011;1813;52.016;8.714;2023-10-09T05:59:56;73.67;;;30.37;;
3597;SDS011;1813;52.016;8.714;2023-10-09T06:02:42;60.93;;;30.50;;
3597;SDS011;1813;52.016;8.714;2023-10-09T06:05:28;62.03;;;31.00;;
3597;SDS011;1813;52.016;8.714;2023-10-09T06:08:31;58.03;;;29.30;;
3597;SDS011;1813;52.016;8.714;2023-10-09T06:11:17;67.13;;;30.43;;
3597;SDS011;1813;52.016;8.714;2023-10-09T06:14:02;61.63;;;30.70;;
3597;SDS011;1813;52.016;8.714;2023-10-09T06:16:45;63.90;;;30.10;;
3597;SDS011;1813;52.016;8.714;2023-10-09T06:19:30;58.80;;;29.50;;
3597;SDS011;1813;52.016;8.714;2023-10-09T06:22:13;58.83;;;30.73;;
3597;SDS011;1813;52.016;8.714;2023-10-09T06:24:58;57.27;;;30.17;;
3597;SDS011;1813;52.016;8.714;2023-10-09T06:27:39;58.30;;;29.20;;
3597;SDS011;1813;52.016;8.714;2023-10-09T06:30:25;62.63;;;29.70;;
3597;SDS011;1813;52.016;8.714;2023-10-09T06:33:02;56.40;;;28.17;;
3597;SDS011;1813;52.016;8.714;2023-10-09T06:35:49;51.33;;;28.03;;
3597;SDS011;1813;52.016;8.714;2023-10-09T06:38:38;55.03;;;27.80;;
3597;SDS011;1813;52.016;8.714;2023-10-09T06:41:22;50.10;;;26.77;;
3597;SDS011;1813;52.016;8.714;2023-10-09T06:44:07;47.60;;;25.23;;
3597;SDS011;1813;52.016;8.714;2023-10-09T06:47:01;47.07;;;26.60;;
3597;SDS011;1813;52.016;8.714;2023-10-09T06:49:40;52.63;;;27.10;;
3597;SDS011;1813;52.016;8.714;2023-10-09T06:52:31;49.07;;;26.73;;
3597;SDS011;1813;52.016;8.714;2023-10-09T06:55:17;44.63;;;27.07;;
3597;SDS011;1813;52.016;8.714;2023-10-09T06:58:03;47.77;;;26.40;;
3597;SDS011;1813;52.016;8.714;2023-10-09T07:00:40;57.80;;;28.10;;
3597;SDS011;1813;52.016;8.714;2023-10-09T07:03:48;49.33;;;26.90;;
3597;SDS011;1813;52.016;8.714;2023-10-09T07:06:29;49.20;;;27.77;;
3597;SDS011;1813;52.016;8.714;2023-10-09T07:09:15;49.23;;;26.87;;
3597;SDS011;1813;52.016;8.714;2023-10-09T07:11:49;54.57;;;28.10;;
3597;SDS011;1813;52.016;8.714;2023-10-09T07:14:29;55.50;;;27.67;;
3597;SDS011;1813;52.016;8.714;2023-10-09T07:17:18;55.03;;;28.20;;
3597;SDS011;1813;52.016;8.714;2023-10-09T07:20:14;63.43;;;28.87;;
3597;SDS011;1813;52.016;8.714;2023-10-09T07:23:09;53.23;;;28.97;;
3597;SDS011;1813;52.016;8.714;2023-10-09T07:26:00;54.50;;;27.90;;
3597;SDS011;1813;52.016;8.714;2023-10-09T07:28:48;58.60;;;30.30;;
3597;SDS011;1813;52.016;8.714;2023-10-09T07:31:30;52.67;;;27.50;;
3597;SDS011;1813;52.016;8.714;2023-10-09T07:34:15;63.07;;;27.90;;
3597;SDS011;1813;52.016;8.714;2023-10-09T07:37:23;56.17;;;27.57;;
3597;SDS011;1813;52.016;8.714;2023-10-09T07:40:04;50.60;;;27.67;;
3597;SDS011;1813;52.016;8.714;2023-10-09T07:42:39;50.73;;;27.33;;
3597;SDS011;1813;52.016;8.714;2023-10-09T07:45:22;49.10;;;28.27;;
3597;SDS011;1813;52.016;8.714;2023-10-09T07:48:16;57.47;;;29.03;;
3597;SDS011;1813;52.016;8.714;2023-10-09T07:50:55;48.87;;;26.43;;
3597;SDS011;1813;52.016;8.714;2023-10-09T07:53:32;50.60;;;27.37;;
3597;SDS011;1813;52.016;8.714;2023-10-09T07:56:16;49.07;;;27.43;;
3597;SDS011;1813;52.016;8.714;2023-10-09T07:58:51;49.17;;;27.00;;
3597;SDS011;1813;52.016;8.714;2023-10-09T08:01:30;47.10;;;26.40;;
3597;SDS011;1813;52.016;8.714;2023-10-09T08:04:09;51.33;;;27.03;;
3597;SDS011;1813;52.016;8.714;2023-10-09T08:06:44;48.33;;;28.27;;
3597;SDS011;1813;52.016;8.714;2023-10-09T08:09:18;49.17;;;28.13;;
3597;SDS011;1813;52.016;8.714;2023-10-09T08:12:01;43.13;;;26.40;;
3597;SDS011;1813;52.016;8.714;2023-10-09T08:14:46;47.77;;;28.53;;
3597;SDS011;1813;52.016;8.714;2023-10-09T08:17:29;46.10;;;27.63;;
3597;SDS011;1813;52.016;8.714;2023-10-09T08:20:07;50.40;;;28.63;;
3597;SDS011;1813;52.016;8.714;2023-10-09T08:22:47;48.10;;;27.53;;
3597;SDS011;1813;52.016;8.714;2023-10-09T08:25:22;49.30;;;25.97;;
3597;SDS011;1813;52.016;8.714;2023-10-09T08:28:04;46.23;;;27.10;;
3597;SDS011;1813;52.016;8.714;2023-10-09T08:30:53;51.63;;;26.80;;
3597;SDS011;1813;52.016;8.714;2023-10-09T08:33:49;44.70;;;26.33;;
3597;SDS011;1813;52.016;8.714;2023-10-09T08:36:28;46.20;;;25.87;;
3597;SDS011;1813;52.016;8.714;2023-10-09T08:39:06;51.67;;;27.87;;
3597;SDS011;1813;52.016;8.714;2023-10-09T08:41:48;53.07;;;28.80;;
3597;SDS011;1813;52.016;8.714;2023-10-09T08:44:25;47.47;;;25.57;;
3597;SDS011;1813;52.016;8.714;2023-10-09T08:47:02;49.60;;;27.10;;
3597;SDS011;1813;52.016;8.714;2023-10-09T08:49:36;47.43;;;26.70;;
3597;SDS011;1813;52.016;8.714;2023-10-09T08:52:09;50.63;;;27.37;;
3597;SDS011;1813;52.016;8.714;2023-10-09T08:54:45;45.60;;;25.57;;
3597;SDS011;1813;52.016;8.714;2023-10-09T08:57:19;43.90;;;25.70;;
3597;SDS011;1813;52.016;8.714;2023-10-09T08:59:55;46.37;;;25.83;;
3597;SDS011;1813;52.016;8.714;2023-10-09T09:02:28;47.10;;;26.17;;
3597;SDS011;1813;52.016;8.714;2023-10-09T09:05:11;43.50;;;25.80;;
3597;SDS011;1813;52.016;8.714;2023-10-09T09:07:50;49.27;;;26.10;;
3597;SDS011;1813;52.016;8.714;2023-10-09T09:10:29;46.33;;;27.07;;
3597;SDS011;1813;52.016;8.714;2023-10-09T09:13:05;50.10;;;27.30;;
3597;SDS011;1813;52.016;8.714;2023-10-09T09:15:44;51.10;;;25.27;;
3597;SDS011;1813;52.016;8.714;2023-10-09T09:18:21;42.30;;;25.50;;
3597;SDS011;1813;52.016;8.714;2023-10-09T09:21:01;44.47;;;25.50;;
3597;SDS011;1813;52.016;8.714;2023-10-09T09:23:34;44.57;;;26.80;;
3597;SDS011;1813;52.016;8.714;2023-10-09T09:26:11;44.73;;;25.60;;
3597;SDS011;1813;52.016;8.714;2023-10-09T09:28:51;47.23;;;26.00;;
3597;SDS011;1813;52.016;8.714;2023-10-09T09:31:28;48.10;;;25.90;;
3597;SDS011;1813;52.016;8.714;2023-10-09T09:34:07;51.60;;;26.87;;
3597;SDS011;1813;52.016;8.714;2023-10-09T09:36:50;44.53;;;25.77;;
3597;SDS011;1813;52.016;8.714;2023-10-09T09:39:26;52.63;;;24.97;;
3597;SDS011;1813;52.016;8.714;2023-10-09T09:42:01;40.60;;;24.50;;
3597;SDS011;1813;52.016;8.714;2023-10-09T09:44:37;47.10;;;25.10;;
3597;SDS011;1813;52.016;8.714;2023-10-09T09:47:19;42.50;;;24.77;;
3597;SDS011;1813;52.016;8.714;2023-10-09T09:49:57;44.67;;;24.40;;
3597;SDS011;1813;52.016;8.714;2023-10-09T09:52:42;50.00;;;25.73;;
3597;SDS011;1813;52.016;8.714;2023-10-09T09:55:19;44.67;;;24.70;;
3597;SDS011;1813;52.016;8.714;2023-10-09T09:58:01;45.10;;;25.63;;
3597;SDS011;1813;52.016;8.714;2023-10-09T10:00:38;47.17;;;25.67;;
3597;SDS011;1813;52.016;8.714;2023-10-09T10:03:19;42.53;;;24.83;;
3597;SDS011;1813;52.016;8.714;2023-10-09T10:05:55;43.87;;;25.00;;
3597;SDS011;1813;52.016;8.714;2023-10-09T10:08:31;45.37;;;26.60;;
3597;SDS011;1813;52.016;8.714;2023-10-09T10:11:04;45.80;;;25.70;;
3597;SDS011;1813;52.016;8.714;2023-10-09T10:13:56;48.17;;;25.47;;
3597;SDS011;1813;52.016;8.714;2023-10-09T10:20:02;49.53;;;25.17;;
3597;SDS011;1813;52.016;8.714;2023-10-09T10:22:49;42.37;;;25.00;;
3597;SDS011;1813;52.016;8.714;2023-10-09T10:25:35;57.80;;;27.33;;
3597;SDS011;1813;52.016;8.714;2023-10-09T10:28:21;46.30;;;25.60;;
3597;SDS011;1813;52.016;8.714;2023-10-09T10:31:06;51.47;;;25.90;;
3597;SDS011;1813;52.016;8.714;2023-10-09T10:36:43;44.77;;;25.40;;
3597;SDS011;1813;52.016;8.714;2023-10-09T10:39:22;45.90;;;27.00;;
3597;SDS011;1813;52.016;8.714;2023-10-09T10:42:14;43.00;;;25.97;;
3597;SDS011;1813;52.016;8.714;2023-10-09T10:45:04;44.13;;;24.87;;
3597;SDS011;1813;52.016;8.714;2023-10-09T10:47:59;41.87;;;24.00;;
3597;SDS011;1813;52.016;8.714;2023-10-09T10:50:38;40.57;;;24.87;;
3597;SDS011;1813;52.016;8.714;2023-10-09T10:53:18;52.80;;;24.83;;
3597;SDS011;1813;52.016;8.714;2023-10-09T10:55:57;43.93;;;25.40;;
3597;SDS011;1813;52.016;8.714;2023-10-09T10:58:54;45.07;;;23.63;;
3597;SDS011;1813;52.016;8.714;2023-10-09T11:01:42;45.03;;;26.50;;
3597;SDS011;1813;52.016;8.714;2023-10-09T11:04:23;45.50;;;25.50;;
3597;SDS011;1813;52.016;8.714;2023-10-09T11:07:12;47.60;;;25.70;;
3597;SDS011;1813;52.016;8.714;2023-10-09T11:09:49;46.20;;;27.70;;
3597;SDS011;1813;52.016;8.714;2023-10-09T11:12:45;50.00;;;29.03;;
3597;SDS011;1813;52.016;8.714;2023-10-09T11:15:46;47.67;;;29.00;;
3597;SDS011;1813;52.016;8.714;2023-10-09T11:18:27;46.90;;;29.53;;
3597;SDS011;1813;52.016;8.714;2023-10-09T11:21:01;52.80;;;31.27;;
3597;SDS011;1813;52.016;8.714;2023-10-09T11:23:46;59.07;;;31.40;;
3597;SDS011;1813;52.016;8.714;2023-10-09T11:26:30;67.80;;;33.33;;
3597;SDS011;1813;52.016;8.714;2023-10-09T11:29:10;59.77;;;33.73;;
3597;SDS011;1813;52.016;8.714;2023-10-09T11:31:57;62.57;;;35.60;;
3597;SDS011;1813;52.016;8.714;2023-10-09T11:34:35;59.73;;;36.70;;
3597;SDS011;1813;52.016;8.714;2023-10-09T11:37:12;64.97;;;37.93;;
3597;SDS011;1813;52.016;8.714;2023-10-09T11:39:45;70.83;;;40.03;;
3597;SDS011;1813;52.016;8.714;2023-10-09T11:42:28;66.97;;;40.30;;
3597;SDS011;1813;52.016;8.714;2023-10-09T11:45:07;65.10;;;39.70;;
3597;SDS011;1813;52.016;8.714;2023-10-09T11:47:55;73.33;;;41.10;;
3597;SDS011;1813;52.016;8.714;2023-10-09T11:50:39;63.07;;;41.70;;
3597;SDS011;1813;52.016;8.714;2023-10-09T11:53:21;72.90;;;42.73;;
3597;SDS011;1813;52.016;8.714;2023-10-09T11:56:03;80.80;;;44.03;;
3597;SDS011;1813;52.016;8.714;2023-10-09T11:58:46;78.37;;;44.70;;
3597;SDS011;1813;52.016;8.714;2023-10-09T12:01:20;70.83;;;43.77;;
3597;SDS011;1813;52.016;8.714;2023-10-09T12:03:55;75.60;;;45.10;;
3597;SDS011;1813;52.016;8.714;2023-10-09T12:06:29;74.47;;;43.47;;
3597;SDS011;1813;52.016;8.714;2023-10-09T12:09:05;76.93;;;42.70;;
3597;SDS011;1813;52.016;8.714;2023-10-09T12:11:45;65.27;;;42.07;;
3597;SDS011;1813;52.016;8.714;2023-10-09T12:14:25;75.63;;;43.73;;
3597;SDS011;1813;52.016;8.714;2023-10-09T12:17:03;73.60;;;44.97;;
3597;SDS011;1813;52.016;8.714;2023-10-09T12:19:38;69.70;;;45.60;;
3597;SDS011;1813;52.016;8.714;2023-10-09T12:22:12;73.43;;;45.30;;
3597;SDS011;1813;52.016;8.714;2023-10-09T12:24:46;76.73;;;43.80;;
3597;SDS011;1813;52.016;8.714;2023-10-09T12:27:20;71.93;;;42.20;;
3597;SDS011;1813;52.016;8.714;2023-10-09T12:29:56;66.90;;;44.17;;
3597;SDS011;1813;52.016;8.714;2023-10-09T12:32:29;64.40;;;43.23;;
3597;SDS011;1813;52.016;8.714;2023-10-09T12:35:07;66.37;;;41.50;;
3597;SDS011;1813;52.016;8.714;2023-10-09T12:37:47;65.77;;;43.33;;
3597;SDS011;1813;52.016;8.714;2023-10-09T12:40:21;62.80;;;40.10;;
3597;SDS011;1813;52.016;8.714;2023-10-09T12:42:59;63.73;;;39.70;;
3597;SDS011;1813;52.016;8.714;2023-10-09T12:45:36;59.90;;;39.00;;
3597;SDS011;1813;52.016;8.714;2023-10-09T12:48:09;61.40;;;40.10;;
3597;SDS011;1813;52.016;8.714;2023-10-09T12:50:44;62.47;;;40.20;;
3597;SDS011;1813;52.016;8.714;2023-10-09T12:53:18;58.73;;;39.50;;
3597;SDS011;1813;52.016;8.714;2023-10-09T12:55:52;58.50;;;39.47;;
3597;SDS011;1813;52.016;8.714;2023-10-09T12:58:26;67.30;;;39.63;;
3597;SDS011;1813;52.016;8.714;2023-10-09T13:01:02;60.57;;;38.87;;
3597;SDS011;1813;52.016;8.714;2023-10-09T13:03:39;68.60;;;39.00;;
3597;SDS011;1813;52.016;8.714;2023-10-09T13:06:13;60.87;;;39.10;;
3597;SDS011;1813;52.016;8.714;2023-10-09T13:08:54;59.27;;;38.70;;
3597;SDS011;1813;52.016;8.714;2023-10-09T13:11:30;63.23;;;38.10;;
3597;SDS011;1813;52.016;8.714;2023-10-09T13:14:06;64.00;;;37.60;;
3597;SDS011;1813;52.016;8.714;2023-10-09T13:16:49;56.10;;;36.20;;
3597;SDS011;1813;52.016;8.714;2023-10-09T13:19:23;61.37;;;36.83;;
3597;SDS011;1813;52.016;8.714;2023-10-09T13:21:56;60.10;;;36.87;;
3597;SDS011;1813;52.016;8.714;2023-10-09T13:24:33;60.20;;;36.00;;
3597;SDS011;1813;52.016;8.714;2023-10-09T13:27:09;57.77;;;37.13;;
3597;SDS011;1813;52.016;8.714;2023-10-09T13:29:44;65.60;;;38.20;;
3597;SDS011;1813;52.016;8.714;2023-10-09T13:32:20;56.30;;;37.20;;
3597;SDS011;1813;52.016;8.714;2023-10-09T13:34:54;58.20;;;36.73;;
3597;SDS011;1813;52.016;8.714;2023-10-09T13:37:32;60.80;;;38.60;;
3597;SDS011;1813;52.016;8.714;2023-10-09T13:40:07;62.23;;;37.70;;
3597;SDS011;1813;52.016;8.714;2023-10-09T13:42:56;63.13;;;38.37;;
3597;SDS011;1813;52.016;8.714;2023-10-09T13:45:30;66.57;;;38.50;;
3597;SDS011;1813;52.016;8.714;2023-10-09T13:48:07;64.63;;;39.47;;
3597;SDS011;1813;52.016;8.714;2023-10-09T13:50:42;63.50;;;38.83;;
3597;SDS011;1813;52.016;8.714;2023-10-09T13:53:17;69.67;;;39.57;;
3597;SDS011;1813;52.016;8.714;2023-10-09T13:55:51;63.33;;;37.40;;
3597;SDS011;1813;52.016;8.714;2023-10-09T13:58:26;64.70;;;39.67;;
3597;SDS011;1813;52.016;8.714;2023-10-09T14:01:01;62.80;;;38.20;;
3597;SDS011;1813;52.016;8.714;2023-10-09T14:03:41;56.30;;;37.37;;
3597;SDS011;1813;52.016;8.714;2023-10-09T14:06:19;69.80;;;37.53;;
3597;SDS011;1813;52.016;8.714;2023-10-09T14:09:01;62.80;;;37.60;;
3597;SDS011;1813;52.016;8.714;2023-10-09T14:11:39;67.13;;;36.70;;
3597;SDS011;1813;52.016;8.714;2023-10-09T14:14:14;64.17;;;37.57;;
3597;SDS011;1813;52.016;8.714;2023-10-09T14:16:47;60.57;;;36.40;;
3597;SDS011;1813;52.016;8.714;2023-10-09T14:19:30;64.07;;;37.00;;
3597;SDS011;1813;52.016;8.714;2023-10-09T14:22:03;73.00;;;36.87;;
3597;SDS011;1813;52.016;8.714;2023-10-09T14:24:37;61.30;;;36.87;;
3597;SDS011;1813;52.016;8.714;2023-10-09T14:27:14;63.67;;;37.30;;
3597;SDS011;1813;52.016;8.714;2023-10-09T14:29:48;64.93;;;37.00;;
3597;SDS011;1813;52.016;8.714;2023-10-09T14:32:26;61.57;;;36.80;;
3597;SDS011;1813;52.016;8.714;2023-10-09T14:35:10;60.13;;;35.20;;
3597;SDS011;1813;52.016;8.714;2023-10-09T14:37:45;68.17;;;36.70;;
3597;SDS011;1813;52.016;8.714;2023-10-09T14:40:19;58.53;;;35.23;;
3597;SDS011;1813;52.016;8.714;2023-10-09T14:43:00;65.00;;;35.30;;
3597;SDS011;1813;52.016;8.714;2023-10-09T14:45:35;59.00;;;35.17;;
3597;SDS011;1813;52.016;8.714;2023-10-09T14:48:09;49.57;;;31.17;;
3597;SDS011;1813;52.016;8.714;2023-10-09T14:50:48;60.83;;;32.63;;
3597;SDS011;1813;52.016;8.714;2023-10-09T14:53:23;55.57;;;31.87;;
3597;SDS011;1813;52.016;8.714;2023-10-09T14:55:57;55.77;;;30.37;;
3597;SDS011;1813;52.016;8.714;2023-10-09T14:58:33;56.10;;;32.00;;
3597;SDS011;1813;52.016;8.714;2023-10-09T15:01:09;49.27;;;28.67;;
3597;SDS011;1813;52.016;8.714;2023-10-09T15:03:43;52.10;;;30.03;;
3597;SDS011;1813;52.016;8.714;2023-10-09T15:06:20;48.43;;;28.70;;
3597;SDS011;1813;52.016;8.714;2023-10-09T15:08:54;43.90;;;26.33;;
3597;SDS011;1813;52.016;8.714;2023-10-09T15:11:38;50.80;;;27.40;;
3597;SDS011;1813;52.016;8.714;2023-10-09T15:14:11;45.03;;;26.50;;
3597;SDS011;1813;52.016;8.714;2023-10-09T15:16:45;45.97;;;26.70;;
3597;SDS011;1813;52.016;8.714;2023-10-09T15:19:18;42.67;;;24.73;;
3597;SDS011;1813;52.016;8.714;2023-10-09T15:22:02;37.57;;;23.87;;
3597;SDS011;1813;52.016;8.714;2023-10-09T15:24:40;39.17;;;24.80;;
3597;SDS011;1813;52.016;8.714;2023-10-09T15:27:15;46.13;;;24.53;;
3597;SDS011;1813;52.016;8.714;2023-10-09T15:29:49;42.40;;;23.83;;
3597;SDS011;1813;52.016;8.714;2023-10-09T15:32:22;44.50;;;22.43;;
3597;SDS011;1813;52.016;8.714;2023-10-09T15:34:56;35.63;;;21.90;;
3597;SDS011;1813;52.016;8.714;2023-10-09T15:37:35;39.03;;;21.23;;
3597;SDS011;1813;52.016;8.714;2023-10-09T15:40:11;38.60;;;21.40;;
3597;SDS011;1813;52.016;8.714;2023-10-09T15:42:48;41.00;;;20.80;;
3597;SDS011;1813;52.016;8.714;2023-10-09T15:45:26;40.57;;;20.17;;
3597;SDS011;1813;52.016;8.714;2023-10-09T15:48:01;36.60;;;20.50;;
3597;SDS011;1813;52.016;8.714;2023-10-09T15:50:36;36.13;;;20.23;;
3597;SDS011;1813;52.016;8.714;2023-10-09T15:53:13;36.30;;;20.47;;
3597;SDS011;1813;52.016;8.714;2023-10-09T15:55:47;35.30;;;19.70;;
3597;SDS011;1813;52.016;8.714;2023-10-09T15:58:22;34.80;;;20.70;;
3597;SDS011;1813;52.016;8.714;2023-10-09T16:00:55;38.33;;;19.67;;
3597;SDS011;1813;52.016;8.714;2023-10-09T16:03:30;35.77;;;20.30;;
3597;SDS011;1813;52.016;8.714;2023-10-09T16:06:03;36.87;;;19.83;;
3597;SDS011;1813;52.016;8.714;2023-10-09T16:08:45;36.40;;;19.47;;
3597;SDS011;1813;52.016;8.714;2023-10-09T16:11:22;34.97;;;20.30;;
3597;SDS011;1813;52.016;8.714;2023-10-09T16:13:56;37.00;;;20.83;;
3597;SDS011;1813;52.016;8.714;2023-10-09T16:16:30;34.90;;;20.90;;